sensor_id;sensor_type;location;lat;lon;timestamp;pressure;altitude;pressure_sealevel;temperature;humidity
23281;BME280;11809;56.390;-3.266;2023-05-03T00:02:08;102373.69;;;16.32;54.00
23281;BME280;11809;56.390;-3.266;2023-05-03T00:04:36;102366.78;;;16.28;53.88
23281;BME280;11809;56.390;-3.266;2023-05-03T00:07:03;102367.69;;;16.27;54.02
23281;BME280;11809;56.390;-3.266;2023-05-03T00:09:33;102373.00;;;16.27;53.97
23281;BME280;11809;56.390;-3.266;2023-05-03T00:12:00;102372.19;;;16.25;54.11
23281;BME280;11809;56.390;-3.266;2023-05-03T00:14:27;102374.16;;;16.20;54.02
23281;BME280;11809;56.390;-3.266;2023-05-03T00:16:55;102383.81;;;16.21;54.09
23281;BME280;11809;56.390;-3.266;2023-05-03T00:19:22;102390.97;;;16.19;54.18
23281;BME280;11809;56.390;-3.266;2023-05-03T00:21:58;102385.75;;;16.18;54.27
23281;BME280;11809;56.390;-3.266;2023-05-03T00:24:26;102391.97;;;16.17;54.30
23281;BME280;11809;56.390;-3.266;2023-05-03T00:26:53;102392.94;;;16.14;54.16
23281;BME280;11809;56.390;-3.266;2023-05-03T00:29:20;102383.22;;;16.13;54.39
23281;BME280;11809;56.390;-3.266;2023-05-03T00:31:48;102386.00;;;16.10;54.45
23281;BME280;11809;56.390;-3.266;2023-05-03T00:34:15;102399.25;;;16.10;54.40
23281;BME280;11809;56.390;-3.266;2023-05-03T00:36:42;102401.97;;;16.09;54.43
23281;BME280;11809;56.390;-3.266;2023-05-03T00:39:09;102399.38;;;16.07;54.62
23281;BME280;11809;56.390;-3.266;2023-05-03T00:41:38;102392.34;;;16.06;54.77
23281;BME280;11809;56.390;-3.266;2023-05-03T00:44:05;102395.91;;;16.05;54.55
23281;BME280;11809;56.390;-3.266;2023-05-03T00:46:32;102410.09;;;16.04;54.80
23281;BME280;11809;56.390;-3.266;2023-05-03T00:49:00;102405.69;;;16.03;54.67
23281;BME280;11809;56.390;-3.266;2023-05-03T00:51:27;102395.25;;;15.99;54.65
23281;BME280;11809;56.390;-3.266;2023-05-03T00:53:55;102398.72;;;16.01;54.77
23281;BME280;11809;56.390;-3.266;2023-05-03T00:56:22;102398.78;;;15.99;54.55
23281;BME280;11809;56.390;-3.266;2023-05-03T00:58:50;102398.78;;;15.99;54.74
23281;BME280;11809;56.390;-3.266;2023-05-03T01:01:17;102404.13;;;15.98;54.67
23281;BME280;11809;56.390;-3.266;2023-05-03T01:03:45;102390.84;;;15.99;54.73
23281;BME280;11809;56.390;-3.266;2023-05-03T01:09:07;102397.13;;;15.95;54.75
23281;BME280;11809;56.390;-3.266;2023-05-03T01:11:56;102390.88;;;15.98;55.02
23281;BME280;11809;56.390;-3.266;2023-05-03T01:17:11;102389.19;;;15.95;55.05
23281;BME280;11809;56.390;-3.266;2023-05-03T01:19:44;102389.19;;;15.95;54.83
23281;BME280;11809;56.390;-3.266;2023-05-03T01:22:45;102390.09;;;15.94;54.89
23281;BME280;11809;56.390;-3.266;2023-05-03T01:25:12;102399.78;;;15.95;54.86
23281;BME280;11809;56.390;-3.266;2023-05-03T01:27:40;102398.06;;;15.94;55.09
23281;BME280;11809;56.390;-3.266;2023-05-03T01:30:09;102391.03;;;15.93;54.90
23281;BME280;11809;56.390;-3.266;2023-05-03T01:37:55;102396.38;;;15.92;55.18
23281;BME280;11809;56.390;-3.266;2023-05-03T01:40:24;102384.97;;;15.90;54.91
23281;BME280;11809;56.390;-3.266;2023-05-03T01:42:54;102391.94;;;15.92;55.11
23281;BME280;11809;56.390;-3.266;2023-05-03T01:45:22;102384.00;;;15.92;55.18
23281;BME280;11809;56.390;-3.266;2023-05-03T01:47:49;102384.00;;;15.92;55.15
23281;BME280;11809;56.390;-3.266;2023-05-03T01:50:16;102382.28;;;15.91;55.26
23281;BME280;11809;56.390;-3.266;2023-05-03T01:52:43;102382.28;;;15.91;55.08
23281;BME280;11809;56.390;-3.266;2023-05-03T01:55:10;102379.63;;;15.91;55.20
23281;BME280;11809;56.390;-3.266;2023-05-03T01:57:37;102377.81;;;15.92;55.34
23281;BME280;11809;56.390;-3.266;2023-05-03T02:00:05;102384.00;;;15.92;55.08
23281;BME280;11809;56.390;-3.266;2023-05-03T02:02:32;102385.72;;;15.93;55.37
23281;BME280;11809;56.390;-3.266;2023-05-03T02:04:59;102378.69;;;15.92;55.32
23281;BME280;11809;56.390;-3.266;2023-05-03T02:07:26;102375.13;;;15.93;55.30
23281;BME280;11809;56.390;-3.266;2023-05-03T02:09:53;102383.09;;;15.93;55.37
23281;BME280;11809;56.390;-3.266;2023-05-03T02:12:20;102383.94;;;15.94;55.40
23281;BME280;11809;56.390;-3.266;2023-05-03T02:14:47;102381.31;;;15.94;55.31
23281;BME280;11809;56.390;-3.266;2023-05-03T02:17:14;102378.59;;;15.95;55.53
23281;BME280;11809;56.390;-3.266;2023-05-03T02:19:43;102371.53;;;15.94;55.41
23281;BME280;11809;56.390;-3.266;2023-05-03T02:22:10;102375.06;;;15.95;55.41
23281;BME280;11809;56.390;-3.266;2023-05-03T02:24:37;102374.19;;;15.94;55.29
23281;BME280;11809;56.390;-3.266;2023-05-03T02:27:05;102373.34;;;15.94;55.29
23281;BME280;11809;56.390;-3.266;2023-05-03T02:29:32;102377.72;;;15.95;55.37
23281;BME280;11809;56.390;-3.266;2023-05-03T02:31:59;102373.34;;;15.94;55.15
23281;BME280;11809;56.390;-3.266;2023-05-03T02:34:26;102373.28;;;15.95;55.41
23281;BME280;11809;56.390;-3.266;2023-05-03T02:36:54;102367.97;;;15.95;55.54
23281;BME280;11809;56.390;-3.266;2023-05-03T02:39:21;102366.19;;;15.96;55.52
23281;BME280;11809;56.390;-3.266;2023-05-03T02:41:48;102369.72;;;15.96;55.48
23281;BME280;11809;56.390;-3.266;2023-05-03T02:44:15;102360.88;;;15.96;55.69
23281;BME280;11809;56.390;-3.266;2023-05-03T02:46:42;102361.75;;;15.96;55.51
23281;BME280;11809;56.390;-3.266;2023-05-03T02:49:09;102361.75;;;15.96;55.60
23281;BME280;11809;56.390;-3.266;2023-05-03T02:51:36;102361.69;;;15.98;55.44
23281;BME280;11809;56.390;-3.266;2023-05-03T02:54:03;102364.34;;;15.98;55.60
23281;BME280;11809;56.390;-3.266;2023-05-03T02:56:30;102367.88;;;15.98;55.52
23281;BME280;11809;56.390;-3.266;2023-05-03T02:58:59;102361.69;;;15.98;55.53
23281;BME280;11809;56.390;-3.266;2023-05-03T03:01:26;102358.19;;;15.97;55.38
23281;BME280;11809;56.390;-3.266;2023-05-03T03:03:53;102353.84;;;15.95;55.60
23281;BME280;11809;56.390;-3.266;2023-05-03T03:06:21;102359.13;;;15.96;55.56
23281;BME280;11809;56.390;-3.266;2023-05-03T03:08:48;102365.22;;;15.98;55.57
23281;BME280;11809;56.390;-3.266;2023-05-03T03:11:15;102360.78;;;15.99;55.45
23281;BME280;11809;56.390;-3.266;2023-05-03T03:13:42;102362.56;;;15.98;55.53
23281;BME280;11809;56.390;-3.266;2023-05-03T03:16:09;102361.66;;;15.99;55.54
23281;BME280;11809;56.390;-3.266;2023-05-03T03:18:36;102351.06;;;15.99;55.67
23281;BME280;11809;56.390;-3.266;2023-05-03T03:21:03;102341.34;;;15.98;55.71
23281;BME280;11809;56.390;-3.266;2023-05-03T03:23:30;102345.75;;;15.99;55.65
23281;BME280;11809;56.390;-3.266;2023-05-03T03:25:57;102355.41;;;16.00;55.68
23281;BME280;11809;56.390;-3.266;2023-05-03T03:28:24;102360.69;;;16.02;55.69
23281;BME280;11809;56.390;-3.266;2023-05-03T03:30:51;102352.75;;;16.00;55.82
23281;BME280;11809;56.390;-3.266;2023-05-03T03:33:18;102358.88;;;16.02;55.80
23281;BME280;11809;56.390;-3.266;2023-05-03T03:35:49;102355.31;;;16.03;55.56
23281;BME280;11809;56.390;-3.266;2023-05-03T03:38:16;102356.28;;;16.01;55.85
23281;BME280;11809;56.390;-3.266;2023-05-03T03:40:43;102353.56;;;16.02;55.94
23281;BME280;11809;56.390;-3.266;2023-05-03T03:43:10;102346.44;;;16.04;55.63
23281;BME280;11809;56.390;-3.266;2023-05-03T03:45:37;102348.22;;;16.04;55.65
23281;BME280;11809;56.390;-3.266;2023-05-03T03:48:04;102345.56;;;16.04;55.95
23281;BME280;11809;56.390;-3.266;2023-05-03T03:50:32;102341.97;;;16.05;55.95
23281;BME280;11809;56.390;-3.266;2023-05-03T03:52:59;102343.72;;;16.06;55.96
23281;BME280;11809;56.390;-3.266;2023-05-03T03:55:27;102350.78;;;16.07;55.90
23281;BME280;11809;56.390;-3.266;2023-05-03T03:57:53;102349.00;;;16.07;55.78
23281;BME280;11809;56.390;-3.266;2023-05-03T04:00:21;102350.72;;;16.08;55.86
23281;BME280;11809;56.390;-3.266;2023-05-03T04:02:48;102350.72;;;16.08;56.02
23281;BME280;11809;56.390;-3.266;2023-05-03T04:05:15;102362.19;;;16.09;55.95
23281;BME280;11809;56.390;-3.266;2023-05-03T04:07:43;102356.81;;;16.10;55.84
23281;BME280;11809;56.390;-3.266;2023-05-03T04:10:09;102360.41;;;16.09;55.82
23281;BME280;11809;56.390;-3.266;2023-05-03T04:12:37;102356.88;;;16.09;55.81
23281;BME280;11809;56.390;-3.266;2023-05-03T04:15:05;102349.81;;;16.09;56.04
23281;BME280;11809;56.390;-3.266;2023-05-03T04:17:32;102349.72;;;16.11;55.84
23281;BME280;11809;56.390;-3.266;2023-05-03T04:20:01;102343.50;;;16.12;55.89
23281;BME280;11809;56.390;-3.266;2023-05-03T04:22:36;102339.91;;;16.13;55.77
23281;BME280;11809;56.390;-3.266;2023-05-03T04:25:07;102337.22;;;16.14;55.98
23281;BME280;11809;56.390;-3.266;2023-05-03T04:27:34;102338.09;;;16.15;55.96
23281;BME280;11809;56.390;-3.266;2023-05-03T04:30:01;102340.00;;;16.11;55.10
23281;BME280;11809;56.390;-3.266;2023-05-03T04:32:29;102336.13;;;15.97;54.66
23281;BME280;11809;56.390;-3.266;2023-05-03T04:35:03;102344.06;;;15.97;55.25
23281;BME280;11809;56.390;-3.266;2023-05-03T04:37:39;102339.41;;;16.03;55.51
23281;BME280;11809;56.390;-3.266;2023-05-03T04:40:06;102333.88;;;16.09;55.59
23281;BME280;11809;56.390;-3.266;2023-05-03T04:42:35;102342.53;;;16.14;55.61
23281;BME280;11809;56.390;-3.266;2023-05-03T04:45:02;102340.69;;;16.16;55.54
23281;BME280;11809;56.390;-3.266;2023-05-03T04:47:32;102344.13;;;16.18;55.62
23281;BME280;11809;56.390;-3.266;2023-05-03T04:49:59;102344.25;;;16.15;55.55
23281;BME280;11809;56.390;-3.266;2023-05-03T04:52:28;102348.53;;;16.19;55.50
23281;BME280;11809;56.390;-3.266;2023-05-03T04:54:55;102353.78;;;16.21;55.56
23281;BME280;11809;56.390;-3.266;2023-05-03T04:57:22;102354.66;;;16.21;55.50
23281;BME280;11809;56.390;-3.266;2023-05-03T04:59:49;102348.47;;;16.21;55.64
23281;BME280;11809;56.390;-3.266;2023-05-03T05:02:16;102345.78;;;16.22;55.49
23281;BME280;11809;56.390;-3.266;2023-05-03T05:04:43;102352.78;;;16.23;55.61
23281;BME280;11809;56.390;-3.266;2023-05-03T05:07:11;102351.88;;;16.24;55.63
23281;BME280;11809;56.390;-3.266;2023-05-03T05:09:39;102356.38;;;16.22;55.55
23281;BME280;11809;56.390;-3.266;2023-05-03T05:12:06;102365.94;;;16.26;55.69
23281;BME280;11809;56.390;-3.266;2023-05-03T05:14:33;102368.84;;;16.20;56.78
23281;BME280;11809;56.390;-3.266;2023-05-03T05:17:00;102361.00;;;16.17;56.65
23281;BME280;11809;56.390;-3.266;2023-05-03T05:19:27;102368.72;;;16.23;56.67
23281;BME280;11809;56.390;-3.266;2023-05-03T05:21:54;102371.44;;;16.22;56.86
23281;BME280;11809;56.390;-3.266;2023-05-03T05:24:22;102376.66;;;16.23;56.76
23281;BME280;11809;56.390;-3.266;2023-05-03T05:26:50;102379.22;;;16.26;56.84
23281;BME280;11809;56.390;-3.266;2023-05-03T05:29:17;102380.09;;;16.27;56.95
23281;BME280;11809;56.390;-3.266;2023-05-03T05:31:44;102388.00;;;16.28;56.94
23281;BME280;11809;56.390;-3.266;2023-05-03T05:34:11;102377.25;;;16.31;56.81
23281;BME280;11809;56.390;-3.266;2023-05-03T05:36:38;102380.75;;;16.33;56.65
23281;BME280;11809;56.390;-3.266;2023-05-03T05:39:05;102386.84;;;16.35;56.82
23281;BME280;11809;56.390;-3.266;2023-05-03T05:41:32;102387.63;;;16.39;56.91
23281;BME280;11809;56.390;-3.266;2023-05-03T05:43:59;102382.31;;;16.39;56.61
23281;BME280;11809;56.390;-3.266;2023-05-03T05:46:26;102384.09;;;16.38;56.65
23281;BME280;11809;56.390;-3.266;2023-05-03T05:48:53;102386.84;;;16.35;56.84
23281;BME280;11809;56.390;-3.266;2023-05-03T05:51:20;102385.13;;;16.34;56.82
23281;BME280;11809;56.390;-3.266;2023-05-03T05:53:47;102391.34;;;16.33;56.59
23281;BME280;11809;56.390;-3.266;2023-05-03T05:56:14;102392.97;;;16.37;56.51
23281;BME280;11809;56.390;-3.266;2023-05-03T05:58:41;102390.50;;;16.33;56.49
23281;BME280;11809;56.390;-3.266;2023-05-03T06:01:09;102400.00;;;16.38;56.30
23281;BME280;11809;56.390;-3.266;2023-05-03T06:03:36;102399.22;;;16.36;55.89
23281;BME280;11809;56.390;-3.266;2023-05-03T06:06:03;102391.53;;;16.04;54.94
23281;BME280;11809;56.390;-3.266;2023-05-03T06:08:30;102392.09;;;15.88;54.67
23281;BME280;11809;56.390;-3.266;2023-05-03T06:10:57;102393.47;;;15.73;54.52
23281;BME280;11809;56.390;-3.266;2023-05-03T06:13:25;102392.84;;;15.66;54.72
23281;BME280;11809;56.390;-3.266;2023-05-03T06:15:52;102387.78;;;15.85;54.65
23281;BME280;11809;56.390;-3.266;2023-05-03T06:18:19;102396.00;;;16.02;55.39
23281;BME280;11809;56.390;-3.266;2023-05-03T06:20:49;102390.44;;;16.10;55.71
23281;BME280;11809;56.390;-3.266;2023-05-03T06:23:16;102390.97;;;16.19;55.77
23281;BME280;11809;56.390;-3.266;2023-05-03T06:25:47;102385.56;;;16.22;55.67
23281;BME280;11809;56.390;-3.266;2023-05-03T06:28:14;102388.13;;;16.25;55.65
23281;BME280;11809;56.390;-3.266;2023-05-03T06:30:47;102396.69;;;16.32;56.17
23281;BME280;11809;56.390;-3.266;2023-05-03T06:33:15;102391.47;;;16.30;56.62
23281;BME280;11809;56.390;-3.266;2023-05-03T06:35:42;102396.66;;;16.33;56.25
23281;BME280;11809;56.390;-3.266;2023-05-03T06:38:09;102396.66;;;16.33;56.40
23281;BME280;11809;56.390;-3.266;2023-05-03T06:40:37;102396.59;;;16.35;56.19
23281;BME280;11809;56.390;-3.266;2023-05-03T06:43:07;102400.13;;;16.35;55.84
23281;BME280;11809;56.390;-3.266;2023-05-03T06:45:34;102392.34;;;16.31;55.40
23281;BME280;11809;56.390;-3.266;2023-05-03T06:48:01;102403.25;;;16.22;55.24
23281;BME280;11809;56.390;-3.266;2023-05-03T06:50:28;102395.59;;;16.14;54.90
23281;BME280;11809;56.390;-3.266;2023-05-03T06:52:55;102401.06;;;16.10;55.03
23281;BME280;11809;56.390;-3.266;2023-05-03T06:55:22;102399.41;;;16.06;55.34
23281;BME280;11809;56.390;-3.266;2023-05-03T06:57:49;102403.03;;;16.03;55.44
23281;BME280;11809;56.390;-3.266;2023-05-03T07:00:18;102400.50;;;16.00;55.47
23281;BME280;11809;56.390;-3.266;2023-05-03T07:02:47;102393.47;;;15.99;55.96
23281;BME280;11809;56.390;-3.266;2023-05-03T07:05:15;102375.91;;;15.97;55.76
23281;BME280;11809;56.390;-3.266;2023-05-03T07:07:42;102387.25;;;16.00;55.72
23281;BME280;11809;56.390;-3.266;2023-05-03T07:10:09;102394.38;;;15.98;55.79
23281;BME280;11809;56.390;-3.266;2023-05-03T07:12:36;102393.53;;;15.98;55.91
23281;BME280;11809;56.390;-3.266;2023-05-03T07:15:03;102386.38;;;16.00;55.84
23281;BME280;11809;56.390;-3.266;2023-05-03T07:17:31;102388.28;;;15.96;55.98
23281;BME280;11809;56.390;-3.266;2023-05-03T07:19:58;102386.44;;;15.98;55.96
23281;BME280;11809;56.390;-3.266;2023-05-03T07:22:25;102377.59;;;15.98;56.09
23281;BME280;11809;56.390;-3.266;2023-05-03T07:24:53;102371.44;;;15.97;55.89
23281;BME280;11809;56.390;-3.266;2023-05-03T07:27:25;102381.19;;;15.97;56.00
23281;BME280;11809;56.390;-3.266;2023-05-03T07:29:52;102380.31;;;15.96;56.19
23281;BME280;11809;56.390;-3.266;2023-05-03T07:32:20;102379.34;;;15.99;56.06
23281;BME280;11809;56.390;-3.266;2023-05-03T07:34:48;102372.41;;;15.95;56.18
23281;BME280;11809;56.390;-3.266;2023-05-03T07:37:15;102384.00;;;15.92;56.20
23281;BME280;11809;56.390;-3.266;2023-05-03T07:39:43;102383.13;;;15.92;56.36
23281;BME280;11809;56.390;-3.266;2023-05-03T07:42:11;102380.53;;;15.90;56.28
23281;BME280;11809;56.390;-3.266;2023-05-03T07:44:41;102381.44;;;15.89;56.24
23281;BME280;11809;56.390;-3.266;2023-05-03T07:47:08;102384.09;;;15.89;56.38
23281;BME280;11809;56.390;-3.266;2023-05-03T07:49:38;102382.38;;;15.88;56.34
23281;BME280;11809;56.390;-3.266;2023-05-03T07:52:05;102377.06;;;15.88;56.47
23281;BME280;11809;56.390;-3.266;2023-05-03T07:54:32;102385.75;;;15.92;56.36
23281;BME280;11809;56.390;-3.266;2023-05-03T07:57:00;102387.50;;;15.93;56.34
23281;BME280;11809;56.390;-3.266;2023-05-03T07:59:27;102382.13;;;15.94;56.22
23281;BME280;11809;56.390;-3.266;2023-05-03T08:01:54;102377.72;;;15.95;56.18
23281;BME280;11809;56.390;-3.266;2023-05-03T08:04:23;102390.09;;;15.94;56.38
23281;BME280;11809;56.390;-3.266;2023-05-03T08:06:51;102376.00;;;15.94;56.31
23281;BME280;11809;56.390;-3.266;2023-05-03T08:09:18;102383.13;;;15.92;56.24
23281;BME280;11809;56.390;-3.266;2023-05-03T08:11:46;102389.28;;;15.92;56.34
23281;BME280;11809;56.390;-3.266;2023-05-03T08:14:13;102384.00;;;15.92;56.29
23281;BME280;11809;56.390;-3.266;2023-05-03T08:16:40;102384.94;;;15.91;56.48
23281;BME280;11809;56.390;-3.266;2023-05-03T08:19:07;102390.22;;;15.91;56.54
23281;BME280;11809;56.390;-3.266;2023-05-03T08:21:35;102378.78;;;15.89;56.47
23281;BME280;11809;56.390;-3.266;2023-05-03T08:24:02;102385.75;;;15.92;56.25
23281;BME280;11809;56.390;-3.266;2023-05-03T08:26:32;102378.69;;;15.92;56.59
23281;BME280;11809;56.390;-3.266;2023-05-03T08:28:59;102377.88;;;15.90;56.59
23281;BME280;11809;56.390;-3.266;2023-05-03T08:31:29;102383.94;;;15.94;56.50
23281;BME280;11809;56.390;-3.266;2023-05-03T08:33:57;102379.56;;;15.93;56.49
23281;BME280;11809;56.390;-3.266;2023-05-03T08:36:24;102378.66;;;15.94;56.51
23281;BME280;11809;56.390;-3.266;2023-05-03T08:38:52;102380.44;;;15.93;56.47
23281;BME280;11809;56.390;-3.266;2023-05-03T08:41:29;102376.00;;;15.94;56.47
23281;BME280;11809;56.390;-3.266;2023-05-03T08:43:58;102369.81;;;15.93;56.38
23281;BME280;11809;56.390;-3.266;2023-05-03T08:46:26;102379.38;;;15.97;56.33
23281;BME280;11809;56.390;-3.266;2023-05-03T08:48:55;102379.38;;;15.97;56.27
23281;BME280;11809;56.390;-3.266;2023-05-03T08:51:23;102383.84;;;15.97;56.50
23281;BME280;11809;56.390;-3.266;2023-05-03T08:53:51;102380.31;;;15.96;56.26
23281;BME280;11809;56.390;-3.266;2023-05-03T08:56:38;102384.75;;;15.96;56.22
23281;BME280;11809;56.390;-3.266;2023-05-03T08:59:06;102392.75;;;15.94;56.52
23281;BME280;11809;56.390;-3.266;2023-05-03T09:01:35;102383.13;;;15.92;56.57
23281;BME280;11809;56.390;-3.266;2023-05-03T09:04:03;102395.41;;;15.94;56.47
23281;BME280;11809;56.390;-3.266;2023-05-03T09:06:31;102389.28;;;15.92;56.38
23281;BME280;11809;56.390;-3.266;2023-05-03T09:09:04;102391.03;;;15.93;56.18
23281;BME280;11809;56.390;-3.266;2023-05-03T09:11:34;102393.78;;;15.90;56.46
23281;BME280;11809;56.390;-3.266;2023-05-03T09:16:36;102390.31;;;15.88;56.60
23281;BME280;11809;56.390;-3.266;2023-05-03T09:19:06;102378.09;;;15.84;56.45
23281;BME280;11809;56.390;-3.266;2023-05-03T09:21:35;102376.19;;;15.88;56.54
23281;BME280;11809;56.390;-3.266;2023-05-03T09:24:11;102382.47;;;15.85;56.46
23281;BME280;11809;56.390;-3.266;2023-05-03T09:26:39;102379.75;;;15.87;56.58
23281;BME280;11809;56.390;-3.266;2023-05-03T09:29:08;102378.06;;;15.86;56.85
23281;BME280;11809;56.390;-3.266;2023-05-03T09:31:36;102382.41;;;15.87;56.63
23281;BME280;11809;56.390;-3.266;2023-05-03T09:34:20;102375.44;;;15.84;56.50
23281;BME280;11809;56.390;-3.266;2023-05-03T09:36:48;102377.19;;;15.85;56.52
23281;BME280;11809;56.390;-3.266;2023-05-03T09:39:17;102374.56;;;15.84;56.53
23281;BME280;11809;56.390;-3.266;2023-05-03T09:41:45;102376.31;;;15.85;56.47
23281;BME280;11809;56.390;-3.266;2023-05-03T09:44:12;102377.19;;;15.85;56.66
23281;BME280;11809;56.390;-3.266;2023-05-03T09:47:05;102373.72;;;15.83;56.51
23281;BME280;11809;56.390;-3.266;2023-05-03T09:49:33;102379.03;;;15.83;56.58
23281;BME280;11809;56.390;-3.266;2023-05-03T09:52:03;102375.44;;;15.84;56.59
23281;BME280;11809;56.390;-3.266;2023-05-03T09:54:30;102381.66;;;15.83;56.57
23281;BME280;11809;56.390;-3.266;2023-05-03T09:56:58;102379.84;;;15.84;56.66
23281;BME280;11809;56.390;-3.266;2023-05-03T09:59:28;102376.31;;;15.85;56.78
23281;BME280;11809;56.390;-3.266;2023-05-03T10:01:56;102381.53;;;15.86;56.84
23281;BME280;11809;56.390;-3.266;2023-05-03T10:04:30;102380.72;;;15.84;56.82
23281;BME280;11809;56.390;-3.266;2023-05-03T10:07:03;102386.00;;;15.86;56.74
23281;BME280;11809;56.390;-3.266;2023-05-03T10:09:42;102379.03;;;15.83;56.65
23281;BME280;11809;56.390;-3.266;2023-05-03T10:12:11;102379.03;;;15.83;56.76
23281;BME280;11809;56.390;-3.266;2023-05-03T10:14:40;102380.72;;;15.84;56.77
23281;BME280;11809;56.390;-3.266;2023-05-03T10:17:15;102378.09;;;15.84;56.75
23281;BME280;11809;56.390;-3.266;2023-05-03T10:19:55;102379.94;;;15.82;56.73
23281;BME280;11809;56.390;-3.266;2023-05-03T10:22:23;102384.25;;;15.85;56.97
23281;BME280;11809;56.390;-3.266;2023-05-03T10:28:06;102385.03;;;15.88;56.69
23281;BME280;11809;56.390;-3.266;2023-05-03T10:30:38;102384.09;;;15.89;56.98
23281;BME280;11809;56.390;-3.266;2023-05-03T10:35:50;102382.28;;;15.91;56.82
23281;BME280;11809;56.390;-3.266;2023-05-03T10:38:28;102382.28;;;15.91;56.80
23281;BME280;11809;56.390;-3.266;2023-05-03T10:40:55;102369.06;;;15.90;57.07
23281;BME280;11809;56.390;-3.266;2023-05-03T10:46:03;102380.31;;;15.96;56.85
23281;BME280;11809;56.390;-3.266;2023-05-03T10:48:33;102372.38;;;15.96;56.88
23281;BME280;11809;56.390;-3.266;2023-05-03T10:53:56;102373.25;;;15.97;56.73
23281;BME280;11809;56.390;-3.266;2023-05-03T10:56:26;102369.63;;;15.99;56.63
23281;BME280;11809;56.390;-3.266;2023-05-03T10:58:55;102369.47;;;16.02;56.67
23281;BME280;11809;56.390;-3.266;2023-05-03T11:01:24;102379.19;;;16.03;56.78
23281;BME280;11809;56.390;-3.266;2023-05-03T11:06:39;102379.19;;;16.03;56.63
23281;BME280;11809;56.390;-3.266;2023-05-03T11:09:11;102377.44;;;16.02;56.69
23281;BME280;11809;56.390;-3.266;2023-05-03T11:11:41;102371.44;;;15.97;56.62
23281;BME280;11809;56.390;-3.266;2023-05-03T11:14:11;102373.06;;;16.01;56.71
23281;BME280;11809;56.390;-3.266;2023-05-03T11:16:40;102369.47;;;16.02;56.79
23281;BME280;11809;56.390;-3.266;2023-05-03T11:19:14;102372.13;;;16.02;56.70
23281;BME280;11809;56.390;-3.266;2023-05-03T11:21:42;102370.34;;;16.03;56.84
23281;BME280;11809;56.390;-3.266;2023-05-03T11:24:11;102365.91;;;16.03;56.82
23281;BME280;11809;56.390;-3.266;2023-05-03T11:26:39;102359.81;;;16.01;56.87
23281;BME280;11809;56.390;-3.266;2023-05-03T11:29:09;102358.88;;;16.02;56.61
23281;BME280;11809;56.390;-3.266;2023-05-03T11:31:36;102351.75;;;16.04;56.69
23281;BME280;11809;56.390;-3.266;2023-05-03T11:34:04;102357.06;;;16.04;56.84
23281;BME280;11809;56.390;-3.266;2023-05-03T11:36:33;102356.19;;;16.04;56.83
23281;BME280;11809;56.390;-3.266;2023-05-03T11:39:00;102351.66;;;16.07;56.76
23281;BME280;11809;56.390;-3.266;2023-05-03T11:41:28;102341.97;;;16.05;56.96
23281;BME280;11809;56.390;-3.266;2023-05-03T11:43:56;102344.53;;;16.08;56.95
23281;BME280;11809;56.390;-3.266;2023-05-03T11:46:42;102345.41;;;16.08;56.98
23281;BME280;11809;56.390;-3.266;2023-05-03T11:49:16;102344.53;;;16.08;56.57
23281;BME280;11809;56.390;-3.266;2023-05-03T11:51:44;102340.97;;;16.09;56.85
23281;BME280;11809;56.390;-3.266;2023-05-03T11:54:16;102338.22;;;16.12;56.73
23281;BME280;11809;56.390;-3.266;2023-05-03T11:56:54;102334.69;;;16.11;56.80
23281;BME280;11809;56.390;-3.266;2023-05-03T11:59:34;102340.06;;;16.10;56.82
23281;BME280;11809;56.390;-3.266;2023-05-03T12:02:01;102337.22;;;16.14;56.79
23281;BME280;11809;56.390;-3.266;2023-05-03T12:04:30;102333.44;;;16.21;56.85
23281;BME280;11809;56.390;-3.266;2023-05-03T12:06:57;102326.16;;;16.26;57.10
23281;BME280;11809;56.390;-3.266;2023-05-03T12:09:26;102331.47;;;16.26;56.75
23281;BME280;11809;56.390;-3.266;2023-05-03T12:11:55;102327.91;;;16.27;56.81
23281;BME280;11809;56.390;-3.266;2023-05-03T12:14:24;102325.25;;;16.27;56.76
23281;BME280;11809;56.390;-3.266;2023-05-03T12:16:52;102325.25;;;16.27;56.77
23281;BME280;11809;56.390;-3.266;2023-05-03T12:19:26;102319.03;;;16.28;56.83
23281;BME280;11809;56.390;-3.266;2023-05-03T12:21:58;102327.78;;;16.30;56.86
23281;BME280;11809;56.390;-3.266;2023-05-03T12:24:45;102318.88;;;16.31;56.74
23281;BME280;11809;56.390;-3.266;2023-05-03T12:27:15;102315.31;;;16.32;56.61
23281;BME280;11809;56.390;-3.266;2023-05-03T12:29:45;102311.75;;;16.33;56.69
23281;BME280;11809;56.390;-3.266;2023-05-03T12:32:13;102319.66;;;16.35;56.76
23281;BME280;11809;56.390;-3.266;2023-05-03T12:34:41;102315.22;;;16.35;56.83
23281;BME280;11809;56.390;-3.266;2023-05-03T12:37:12;102305.50;;;16.34;56.70
23281;BME280;11809;56.390;-3.266;2023-05-03T12:39:42;102309.84;;;16.37;56.80
23281;BME280;11809;56.390;-3.266;2023-05-03T12:42:17;102302.81;;;16.36;56.70
23281;BME280;11809;56.390;-3.266;2023-05-03T12:44:47;102298.38;;;16.36;56.75
23281;BME280;11809;56.390;-3.266;2023-05-03T12:47:19;102297.44;;;16.37;56.81
23281;BME280;11809;56.390;-3.266;2023-05-03T12:49:54;102286.81;;;16.37;56.93
23281;BME280;11809;56.390;-3.266;2023-05-03T12:52:25;102289.38;;;16.41;56.91
23281;BME280;11809;56.390;-3.266;2023-05-03T12:54:55;102289.44;;;16.39;56.71
23281;BME280;11809;56.390;-3.266;2023-05-03T12:57:29;102291.91;;;16.44;56.72
23281;BME280;11809;56.390;-3.266;2023-05-03T13:00:04;102287.47;;;16.44;56.64
23281;BME280;11809;56.390;-3.266;2023-05-03T13:02:40;102290.06;;;16.46;56.67
23281;BME280;11809;56.390;-3.266;2023-05-03T13:05:12;102284.75;;;16.46;56.77
23281;BME280;11809;56.390;-3.266;2023-05-03T13:08:00;102284.63;;;16.49;56.63
23281;BME280;11809;56.390;-3.266;2023-05-03T13:10:36;102281.19;;;16.47;56.86
23281;BME280;11809;56.390;-3.266;2023-05-03T13:13:05;102277.47;;;16.51;56.64
23281;BME280;11809;56.390;-3.266;2023-05-03T13:15:33;102284.56;;;16.50;56.78
23281;BME280;11809;56.390;-3.266;2023-05-03T13:18:05;102271.28;;;16.50;56.77